Flight Track Log - Related Links

Times and Time Zones

All times are in EDT time to prevent confusion due to time zone crossing. See the CRQ101 flight status page for this flight to view local times or setup timezone preferences in your user account.

Time Position Orientation Groundspeed Altitude Reporting Facility
EDT Latitude Longitude Course Direction KTS MPH feet Rate Location/Type
Mon 08:21:00 AM 48.2840 -77.3322 49° Northeast  Level FlightAware Approximate
Mon 08:22:00 AM 48.3251 -77.2618 49° Northeast  Level FlightAware Approximate
Mon 08:23:00 AM 48.3662 -77.1914 49° Northeast  Level FlightAware Approximate
Mon 08:24:00 AM 48.4078 -77.1216 45° Northeast  Level FlightAware Approximate
Mon 08:24:05 AM 48.3667 -77.4000 51° Northeast 200 230 10,100  Level Montreal Center
Mon 08:25:00 AM 48.4520 -77.0554 45° Northeast  Level FlightAware Approximate
Mon 08:25:05 AM 48.4167 -77.3333 41° Northeast 210 242 10,900  Level Montreal Center
Mon 08:26:00 AM 48.4927 -76.9845 51° Northeast  Level FlightAware Approximate
Mon 08:26:05 AM 48.4500 -77.2667 53° Northeast 210 242 11,400  Level Montreal Center
Mon 08:27:00 AM 48.5317 -76.9111 51° Northeast  Level FlightAware Approximate
Mon 08:27:05 AM 48.4833 -77.2167 45° Northeast 210 242 12,500  Level Montreal Center
Mon 08:28:00 AM 48.5706 -76.8377 51° Northeast  Level FlightAware Approximate
Mon 08:28:05 AM 48.5167 -77.1333 59° Northeast 210 242 13,000  Level Montreal Center
Mon 08:29:00 AM 48.6094 -76.7641 51° Northeast  Level FlightAware Approximate
Mon 08:29:05 AM 48.5500 -77.0333 63° Northeast 230 265 13,100  Level Montreal Center
Mon 08:30:05 AM 48.6000 -76.9500 48° Northeast 240 276 13,000  Descending Montreal Center
Mon 08:31:05 AM 48.6500 -76.8833 41° Northeast 240 276 13,100 50 Climbing Montreal Center
Mon 08:32:05 AM 48.6833 -76.8000 59° Northeast 240 276 13,100 -50 Level Montreal Center
Mon 08:33:05 AM 48.7333 -76.7333 41° Northeast 240 276 13,000  Descending Montreal Center
Mon 08:34:05 AM 48.7667 -76.6333 63° Northeast 240 276 13,100  Climbing Montreal Center
Mon 08:35:05 AM 48.8000 -76.5500 59° Northeast 240 276 13,000 -50 Descending Montreal Center
Mon 08:36:05 AM 48.8333 -76.4500 63° Northeast 250 288 13,000 50 Level Montreal Center
Mon 08:37:05 AM 48.8833 -76.3833 41° Northeast 240 276 13,100 50 Climbing Montreal Center
Mon 08:38:05 AM 48.9167 -76.3000 59° Northeast 240 276 13,100  Level Montreal Center
Mon 08:39:05 AM 48.9333 -76.2000 76° East 240 276 13,100 -50 Level Montreal Center
Mon 08:40:05 AM 48.9833 -76.1167 48° Northeast 230 265 13,000 -50 Descending Montreal Center
Mon 08:41:05 AM 49.0167 -76.0500 53° Northeast 230 265 13,000 50 Level Montreal Center
Mon 08:42:05 AM 49.0667 -75.9667 48° Northeast 230 265 13,100 50 Climbing Montreal Center
Mon 08:43:05 AM 49.1000 -75.8833 59° Northeast 230 265 13,100 50 Level Montreal Center
Mon 08:44:05 AM 49.1333 -75.7833 63° Northeast 230 265 13,200  Climbing Montreal Center
Mon 08:45:05 AM 49.1500 -75.7167 69° East 240 276 13,100 -50 Descending Montreal Center
Mon 08:46:05 AM 49.2000 -75.6333 47° Northeast 230 265 13,100  Level Montreal Center
Mon 08:47:05 AM 49.2333 -75.5500 58° Northeast 230 265 13,100 -300 Level Montreal Center
Mon 08:48:05 AM 49.2667 -75.4500 63° Northeast 240 276 12,500 -700 Descending Montreal Center
Mon 08:49:05 AM 49.3167 -75.3667 47° Northeast 250 288 11,700 -850 Descending Montreal Center
Mon 08:50:05 AM 49.3500 -75.2667 63° Northeast 260 299 10,800 -1,150 Descending Montreal Center
Mon 08:51:05 AM 49.3833 -75.1667 63° Northeast 260 299 9,400 -1,250 Descending Montreal Center
Mon 08:52:05 AM 49.4333 -75.0833 47° Northeast 240 276 8,300 -1,250 Descending Montreal Center
Mon 08:53:05 AM 49.4667 -75.0167 52° Northeast 230 265 6,900 -1,300 Descending Montreal Center
Mon 08:54:05 AM 49.5000 -74.9333 58° Northeast 220 253 5,700 -1,100 Descending Montreal Center
Mon 08:55:05 AM 49.5333 -74.8500 58° Northeast 230 265 4,700 -950 Descending Montreal Center
Mon 08:56:05 AM 49.5667 -74.7667 58° Northeast 230 265 3,800 -700 Descending Montreal Center
Mon 08:57:05 AM 49.6000 -74.7000 52° Northeast 210 242 3,300 -350 Descending Montreal Center
Mon 08:58:05 AM 49.6333 -74.6500 44° Northeast 170 196 3,100 -250 Descending Montreal Center
Mon 08:59:05 AM 49.6667 -74.6167 33° Northeast 160 184 2,800 -350 Descending Montreal Center
Mon 09:00:05 AM 49.7000 -74.5667 44° Northeast 150 173 2,400 -450 Descending Montreal Center
Mon 09:01:05 AM 49.7333 -74.5667 360° North 140 161 1,900 -500 Descending Montreal Center
Mon 09:02:05 AM 49.7667 -74.5333 33° Northeast 130 150 1,400 -500 Descending Montreal Center

Login

Don't have an account? Register now (free) for customized features, flight alerts, and more!